createdAt,value
2023-02-05T00:00:51.611Z,100585.04
2023-02-05T00:03:19.789Z,100587.08
2023-02-05T00:05:47.785Z,100585.40
2023-02-05T00:08:15.844Z,100587.63
2023-02-05T00:10:44.113Z,100590.89
2023-02-05T00:13:12.572Z,100594.68
2023-02-05T00:15:40.934Z,100595.05
2023-02-05T00:18:09.724Z,100592.56
2023-02-05T00:20:38.006Z,100595.31
2023-02-05T00:23:06.322Z,100597.96
2023-02-05T00:25:34.711Z,100590.70
2023-02-05T00:28:03.328Z,100586.53
2023-02-05T00:30:32.270Z,100587.89
2023-02-05T00:33:00.434Z,100590.64
2023-02-05T00:35:30.233Z,100589.85
2023-02-05T00:37:58.314Z,100586.11
2023-02-05T00:40:26.668Z,100586.64
2023-02-05T00:42:54.680Z,100592.64
2023-02-05T00:45:22.925Z,100592.13
2023-02-05T00:47:50.894Z,100598.81
2023-02-05T00:50:19.074Z,100599.42
2023-02-05T00:52:47.059Z,100598.90
2023-02-05T00:55:15.305Z,100594.52
2023-02-05T00:57:43.346Z,100592.27
2023-02-05T01:00:12.447Z,100593.24
2023-02-05T01:02:41.659Z,100593.34
2023-02-05T01:05:09.844Z,100590.61
2023-02-05T01:07:38.430Z,100593.34
2023-02-05T01:10:07.808Z,100589.56
2023-02-05T01:12:36.014Z,100593.17
2023-02-05T01:15:06.261Z,100591.85
2023-02-05T01:17:34.712Z,100589.48
2023-02-05T01:20:03.196Z,100587.56
2023-02-05T01:22:32.289Z,100589.95
2023-02-05T01:25:00.500Z,100587.45
2023-02-05T01:27:28.536Z,100586.79
2023-02-05T01:29:57.123Z,100589.09
2023-02-05T01:32:25.299Z,100586.55
2023-02-05T01:34:53.266Z,100589.97
2023-02-05T01:37:21.748Z,100589.06
2023-02-05T01:39:52.138Z,100587.92
2023-02-05T01:42:22.936Z,100591.86
2023-02-05T01:45:23.576Z,100592.45
2023-02-05T01:47:53.054Z,100591.75
2023-02-05T01:50:27.256Z,100589.75
2023-02-05T01:52:55.912Z,100591.34
2023-02-05T01:55:24.391Z,100593.69
2023-02-05T01:57:52.515Z,100592.30
2023-02-05T02:00:21.706Z,100598.81
2023-02-05T02:02:49.664Z,100602.12
2023-02-05T02:05:18.211Z,100596.77
2023-02-05T02:07:46.398Z,100603.92
2023-02-05T02:10:15.517Z,100597.77
2023-02-05T02:12:44.397Z,100599.92
2023-02-05T02:15:15.454Z,100604.33
2023-02-05T02:17:45.978Z,100602.19
2023-02-05T02:20:18.764Z,100602.69
2023-02-05T02:22:55.959Z,100595.10
2023-02-05T02:25:33.283Z,100593.43
2023-02-05T02:28:02.876Z,100592.28
2023-02-05T02:30:35.733Z,100589.40
2023-02-05T02:33:15.324Z,100587.52
2023-02-05T02:36:01.273Z,100590.64
2023-02-05T02:38:35.889Z,100587.65
2023-02-05T02:41:10.809Z,100589.84
2023-02-05T02:44:05.914Z,100598.01
2023-02-05T02:46:38.816Z,100598.11
2023-02-05T02:49:08.622Z,100600.90
2023-02-05T02:51:36.789Z,100600.02
2023-02-05T02:54:08.044Z,100598.41
2023-02-05T02:56:37.645Z,100602.58
2023-02-05T02:59:10.290Z,100602.02
2023-02-05T03:01:42.580Z,100603.38
2023-02-05T03:04:14.948Z,100607.14
2023-02-05T03:06:45.256Z,100615.30
2023-02-05T03:09:22.793Z,100617.07
2023-02-05T03:11:51.164Z,100618.31
2023-02-05T03:14:19.719Z,100613.92
2023-02-05T03:16:47.774Z,100612.18
2023-02-05T03:19:16.536Z,100615.60
2023-02-05T03:21:51.478Z,100621.98
2023-02-05T03:24:19.628Z,100624.39
2023-02-05T03:26:49.529Z,100622.39
2023-02-05T03:29:27.325Z,100619.84
2023-02-05T03:32:34.118Z,100611.95
2023-02-05T03:35:08.222Z,100617.71
2023-02-05T03:37:52.269Z,100614.38
2023-02-05T03:40:20.684Z,100617.67
2023-02-05T03:43:04.240Z,100620.98
2023-02-05T03:45:35.238Z,100618.33
2023-02-05T03:48:41.009Z,100623.08
2023-02-05T03:51:33.218Z,100623.38
2023-02-05T03:54:07.080Z,100618.45
2023-02-05T03:56:56.931Z,100622.02
2023-02-05T03:59:25.309Z,100623.90
2023-02-05T04:01:53.776Z,100625.30
2023-02-05T04:04:22.097Z,100620.80
2023-02-05T04:06:52.773Z,100620.21
2023-02-05T04:09:20.907Z,100619.60
2023-02-05T04:11:48.798Z,100620.90
2023-02-05T04:14:18.460Z,100623.00
2023-02-05T04:16:47.116Z,100626.70
2023-02-05T04:19:15.400Z,100631.96
2023-02-05T04:21:43.654Z,100631.23
2023-02-05T04:24:12.476Z,100630.27
2023-02-05T04:26:40.640Z,100628.87
2023-02-05T04:29:09.298Z,100631.16
2023-02-05T04:31:42.969Z,100630.80
2023-02-05T04:34:12.164Z,100629.11
2023-02-05T04:36:41.159Z,100630.58
2023-02-05T04:39:09.295Z,100630.73
2023-02-05T04:41:37.949Z,100631.88
2023-02-05T04:44:06.855Z,100635.55
2023-02-05T04:46:35.873Z,100629.02
2023-02-05T04:49:04.050Z,100630.79
2023-02-05T04:51:32.880Z,100634.38
2023-02-05T04:54:00.947Z,100637.77
2023-02-05T04:56:29.179Z,100637.97
2023-02-05T04:58:57.432Z,100646.23
2023-02-05T05:01:25.825Z,100646.59
2023-02-05T05:03:53.978Z,100649.02
2023-02-05T05:06:21.951Z,100650.63
2023-02-05T05:08:49.961Z,100650.39
2023-02-05T05:11:18.958Z,100650.78
2023-02-05T05:13:49.447Z,100655.13
2023-02-05T05:16:17.950Z,100656.70
2023-02-05T05:18:46.091Z,100653.16
2023-02-05T05:21:14.307Z,100653.80
2023-02-05T05:23:42.845Z,100653.67
2023-02-05T05:26:11.701Z,100650.83
2023-02-05T05:28:39.871Z,100651.48
2023-02-05T05:31:16.942Z,100658.66
2023-02-05T05:33:45.783Z,100661.15
2023-02-05T05:36:14.465Z,100664.98
2023-02-05T05:38:42.643Z,100667.05
2023-02-05T05:41:41.682Z,100669.98
2023-02-05T05:44:09.959Z,100672.23
2023-02-05T05:46:41.918Z,100676.07
2023-02-05T05:49:10.176Z,100681.64
2023-02-05T05:51:38.655Z,100682.69
2023-02-05T05:54:06.721Z,100681.98
2023-02-05T05:56:36.361Z,100687.58
2023-02-05T05:59:04.631Z,100691.90
2023-02-05T06:01:32.792Z,100696.73
2023-02-05T06:04:03.628Z,100700.60
2023-02-05T06:06:32.184Z,100696.09
2023-02-05T06:09:00.382Z,100694.10
2023-02-05T06:11:28.704Z,100694.52
2023-02-05T06:13:57.174Z,100696.57
2023-02-05T06:16:25.775Z,100697.98
2023-02-05T06:18:55.298Z,100706.11
2023-02-05T06:21:24.054Z,100713.28
2023-02-05T06:23:55.608Z,100713.01
2023-02-05T06:26:23.570Z,100711.38
2023-02-05T06:28:51.522Z,100713.23
2023-02-05T06:31:19.545Z,100713.91
2023-02-05T06:33:49.478Z,100715.59
2023-02-05T06:36:17.773Z,100718.69
2023-02-05T06:38:45.759Z,100719.95
2023-02-05T06:41:13.784Z,100721.59
2023-02-05T06:43:42.883Z,100723.53
2023-02-05T06:46:11.994Z,100721.62
2023-02-05T06:48:40.008Z,100726.46
2023-02-05T06:51:08.092Z,100731.23
2023-02-05T06:53:36.098Z,100733.21
2023-02-05T06:56:04.857Z,100734.00
2023-02-05T06:58:32.837Z,100742.30
2023-02-05T07:01:02.018Z,100746.70
2023-02-05T07:03:30.118Z,100744.02
2023-02-05T07:06:05.052Z,100739.49
2023-02-05T07:08:33.480Z,100738.65
2023-02-05T07:11:02.267Z,100738.98
2023-02-05T07:13:33.260Z,100742.98
2023-02-05T07:16:05.527Z,100742.73
2023-02-05T07:18:33.918Z,100746.06
2023-02-05T07:21:08.978Z,100746.42
2023-02-05T07:23:37.532Z,100751.79
2023-02-05T07:26:07.570Z,100755.31
2023-02-05T07:28:35.759Z,100755.47
2023-02-05T07:31:06.308Z,100762.67
2023-02-05T07:33:37.073Z,100765.55
2023-02-05T07:36:06.834Z,100765.99
2023-02-05T07:38:36.361Z,100760.26
2023-02-05T07:41:09.378Z,100763.45
2023-02-05T07:43:37.693Z,100764.52
2023-02-05T07:46:07.475Z,100761.01
2023-02-05T07:48:35.747Z,100758.98
2023-02-05T07:51:04.718Z,100756.63
2023-02-05T07:53:32.922Z,100757.64
2023-02-05T07:56:04.787Z,100756.79
2023-02-05T07:58:33.089Z,100763.02
2023-02-05T08:03:43.433Z,100781.66
2023-02-05T08:06:14.010Z,100781.30
2023-02-05T08:08:42.482Z,100784.77
2023-02-05T08:11:14.204Z,100780.61
2023-02-05T08:13:43.329Z,100786.50
2023-02-05T08:16:15.810Z,100789.05
2023-02-05T08:18:46.941Z,100790.33
2023-02-05T08:21:16.243Z,100793.36
2023-02-05T08:23:44.358Z,100790.93
2023-02-05T08:26:13.474Z,100791.46
2023-02-05T08:28:41.840Z,100795.48
2023-02-05T08:31:15.644Z,100795.94
2023-02-05T08:33:44.124Z,100802.86
2023-02-05T08:36:12.267Z,100804.77
2023-02-05T08:38:41.052Z,100808.42
2023-02-05T08:41:12.816Z,100810.13
2023-02-05T08:43:41.962Z,100811.39
2023-02-05T08:46:10.491Z,100815.48
2023-02-05T08:48:38.796Z,100818.72
2023-02-05T08:51:09.950Z,100821.66
2023-02-05T08:53:38.143Z,100822.67
2023-02-05T08:56:06.837Z,100824.18
2023-02-05T08:58:34.926Z,100823.98
2023-02-05T09:01:05.779Z,100826.27
2023-02-05T09:03:34.114Z,100823.23
2023-02-05T09:06:05.351Z,100829.36
2023-02-05T09:08:33.366Z,100830.61
2023-02-05T09:11:01.602Z,100830.33
2023-02-05T09:13:30.002Z,100828.02
2023-02-05T09:16:00.854Z,100829.66
2023-02-05T09:18:29.100Z,100827.44
2023-02-05T09:20:57.584Z,100826.36
2023-02-05T09:23:26.070Z,100827.95
2023-02-05T09:25:54.349Z,100830.27
2023-02-05T09:28:22.880Z,100837.61
2023-02-05T09:30:51.773Z,100838.70
2023-02-05T09:33:19.957Z,100837.91
2023-02-05T09:35:48.079Z,100833.42
2023-02-05T09:38:17.976Z,100829.83
2023-02-05T09:41:10.500Z,100827.89
2023-02-05T09:43:57.133Z,100832.05
2023-02-05T09:46:40.436Z,100832.77
2023-02-05T09:49:18.760Z,100835.59
2023-02-05T09:51:51.820Z,100826.66
2023-02-05T09:54:26.056Z,100829.82
2023-02-05T09:56:56.924Z,100828.52
2023-02-05T09:59:26.536Z,100827.11
2023-02-05T10:01:58.926Z,100827.11
2023-02-05T10:04:27.874Z,100825.68
2023-02-05T10:06:55.899Z,100821.14
2023-02-05T10:09:54.437Z,100824.36
2023-02-05T10:12:41.667Z,100825.45
2023-02-05T10:15:29.315Z,100832.83
2023-02-05T10:18:18.826Z,100834.20
2023-02-05T10:20:56.057Z,100835.17
2023-02-05T10:23:50.839Z,100837.11
2023-02-05T10:26:19.015Z,100841.52
2023-02-05T10:29:03.875Z,100848.23
2023-02-05T10:31:36.937Z,100848.19
2023-02-05T10:34:30.752Z,100852.30
2023-02-05T10:36:58.755Z,100853.98
2023-02-05T10:39:29.123Z,100854.49
2023-02-05T10:42:17.227Z,100864.86
2023-02-05T10:44:46.588Z,100865.08
2023-02-05T10:47:29.002Z,100866.91
2023-02-05T10:50:01.340Z,100863.55
2023-02-05T10:52:29.446Z,100864.82
2023-02-05T10:54:57.829Z,100867.33
2023-02-05T10:57:25.976Z,100871.27
2023-02-05T10:59:56.215Z,100867.69
2023-02-05T11:02:38.324Z,100867.88
2023-02-05T11:05:27.843Z,100870.77
2023-02-05T11:07:56.362Z,100869.21
2023-02-05T11:10:26.160Z,100875.45
2023-02-05T11:12:56.613Z,100875.75
2023-02-05T11:15:29.627Z,100884.45
2023-02-05T11:18:05.244Z,100888.42
2023-02-05T11:20:35.662Z,100885.20
2023-02-05T11:23:18.550Z,100886.45
2023-02-05T11:25:57.989Z,100886.52
2023-02-05T11:28:29.802Z,100884.00
2023-02-05T11:31:04.677Z,100883.55
2023-02-05T11:33:33.503Z,100886.11
2023-02-05T11:36:03.946Z,100885.64
2023-02-05T11:38:46.705Z,100889.58
2023-02-05T11:41:52.060Z,100886.27
2023-02-05T11:44:25.900Z,100886.55
2023-02-05T11:46:56.985Z,100893.65
2023-02-05T11:49:31.370Z,100894.02
2023-02-05T11:52:02.462Z,100893.21
2023-02-05T11:54:32.496Z,100894.92
2023-02-05T11:57:17.489Z,100902.20
2023-02-05T11:59:54.758Z,100903.45
2023-02-05T12:02:28.850Z,100902.91
2023-02-05T12:05:31.282Z,100907.31
2023-02-05T12:08:07.084Z,100908.38
2023-02-05T12:11:01.328Z,100909.43
2023-02-05T12:13:39.326Z,100911.58
2023-02-05T12:16:47.638Z,100916.84
2023-02-05T12:19:31.163Z,100914.18
2023-02-05T12:22:24.023Z,100915.45
2023-02-05T12:24:55.270Z,100918.75
2023-02-05T12:27:50.284Z,100915.73
2023-02-05T12:30:44.682Z,100923.55
2023-02-05T12:33:35.160Z,100924.42
2023-02-05T12:36:22.067Z,100922.52
2023-02-05T12:39:15.253Z,100921.28
2023-02-05T12:41:55.143Z,100922.69
2023-02-05T12:44:28.256Z,100927.05
2023-02-05T12:47:19.378Z,100922.27
2023-02-05T12:50:06.799Z,100923.46
2023-02-05T12:52:45.925Z,100923.84
2023-02-05T12:55:29.487Z,100923.35
2023-02-05T12:58:04.241Z,100926.48
2023-02-05T13:00:34.429Z,100928.61
2023-02-05T13:03:17.234Z,100929.08
2023-02-05T13:05:48.267Z,100934.14
2023-02-05T13:08:20.416Z,100933.08
2023-02-05T13:10:55.341Z,100931.82
2023-02-05T13:13:32.256Z,100932.95
2023-02-05T13:16:14.895Z,100937.91
2023-02-05T13:18:54.501Z,100934.15
2023-02-05T13:21:41.727Z,100931.77
2023-02-05T13:24:31.504Z,100934.33
2023-02-05T13:27:18.860Z,100939.36
2023-02-05T13:29:51.717Z,100938.09
2023-02-05T13:32:21.934Z,100941.81
2023-02-05T13:34:54.934Z,100944.05
2023-02-05T13:38:01.558Z,100945.48
2023-02-05T13:40:36.148Z,100943.58
2023-02-05T13:43:20.060Z,100949.78
2023-02-05T13:46:10.626Z,100956.86
2023-02-05T13:48:52.624Z,100959.93
2023-02-05T13:51:39.059Z,100956.73
2023-02-05T13:54:24.273Z,100961.14
2023-02-05T13:56:58.767Z,100967.69
2023-02-05T13:59:40.962Z,100967.20
2023-02-05T14:02:39.623Z,100970.38
2023-02-05T14:05:08.097Z,100979.44
2023-02-05T14:07:50.035Z,100981.66
2023-02-05T14:10:27.944Z,100985.73
2023-02-05T14:13:33.776Z,100988.42
2023-02-05T14:16:38.014Z,100987.94
2023-02-05T14:19:21.990Z,100990.31
2023-02-05T14:22:00.063Z,100997.71
2023-02-05T14:24:45.240Z,100991.64
2023-02-05T14:27:39.869Z,100998.27
2023-02-05T14:30:30.727Z,100996.87
2023-02-05T14:33:05.729Z,101000.18
2023-02-05T14:35:40.791Z,101004.02
2023-02-05T14:38:32.201Z,101010.17
2023-02-05T14:41:10.688Z,101011.80
2023-02-05T14:43:41.062Z,101018.86
2023-02-05T14:46:27.216Z,101016.39
2023-02-05T14:49:00.022Z,101021.14
2023-02-05T14:51:35.171Z,101023.36
2023-02-05T14:54:04.779Z,101029.75
2023-02-05T14:56:46.888Z,101034.23
2023-02-05T14:59:29.853Z,101030.42
2023-02-05T15:02:00.070Z,101029.00
2023-02-05T15:04:30.139Z,101030.08
2023-02-05T15:06:59.453Z,101034.41
2023-02-05T15:09:39.189Z,101037.76
2023-02-05T15:12:07.868Z,101049.60
2023-02-05T15:14:51.918Z,101048.71
2023-02-05T15:17:29.537Z,101051.15
2023-02-05T15:20:00.623Z,101048.35
2023-02-05T15:22:33.799Z,101051.35
2023-02-05T15:25:10.508Z,101051.45
2023-02-05T15:27:46.972Z,101055.20
2023-02-05T15:30:18.423Z,101059.19
2023-02-05T15:32:54.175Z,101058.45
2023-02-05T15:35:24.914Z,101060.27
2023-02-05T15:37:53.612Z,101063.09
2023-02-05T15:40:27.452Z,101062.55
2023-02-05T15:42:58.317Z,101069.72
2023-02-05T15:45:32.345Z,101067.49
2023-02-05T15:48:16.314Z,101073.34
2023-02-05T15:50:49.796Z,101074.16
2023-02-05T15:53:35.916Z,101076.84
2023-02-05T15:56:21.753Z,101077.61
2023-02-05T15:59:11.994Z,101076.41
2023-02-05T16:02:06.559Z,101080.98
2023-02-05T16:04:37.624Z,101086.67
2023-02-05T16:07:18.598Z,101091.08
2023-02-05T16:09:48.412Z,101094.52
2023-02-05T16:12:16.580Z,101102.88
2023-02-05T16:14:44.939Z,101105.57
2023-02-05T16:17:18.435Z,101110.22
2023-02-05T16:19:52.966Z,101117.76
2023-02-05T16:22:37.581Z,101118.77
2023-02-05T16:25:13.235Z,101124.23
2023-02-05T16:27:44.902Z,101126.45
2023-02-05T16:30:33.463Z,101126.77
2023-02-05T16:33:02.469Z,101132.80
2023-02-05T16:35:36.605Z,101138.10
2023-02-05T16:38:09.199Z,101137.86
2023-02-05T16:40:43.306Z,101144.30
2023-02-05T16:54:44.569Z,101150.77
2023-02-05T16:57:14.420Z,101148.90
2023-02-05T16:59:50.284Z,101151.75
2023-02-05T17:02:39.642Z,101158.35
2023-02-05T17:05:28.220Z,101167.38
2023-02-05T17:08:02.121Z,101175.40
2023-02-05T17:10:30.864Z,101180.41
2023-02-05T17:13:05.382Z,101187.00
2023-02-05T17:15:40.303Z,101190.07
2023-02-05T17:18:24.158Z,101187.25
2023-02-05T17:21:17.725Z,101194.93
2023-02-05T17:23:50.364Z,101198.95
2023-02-05T17:26:18.539Z,101201.95
2023-02-05T17:28:52.552Z,101203.75
2023-02-05T17:31:25.109Z,101209.48
2023-02-05T17:33:58.047Z,101215.11
2023-02-05T17:36:26.528Z,101221.23
2023-02-05T17:38:54.623Z,101216.08
2023-02-05T17:41:43.165Z,101218.82
2023-02-05T17:44:15.857Z,101219.74
2023-02-05T17:46:44.530Z,101215.86
2023-02-05T17:49:13.217Z,101219.02
2023-02-05T17:51:42.726Z,101218.07
2023-02-05T17:54:17.016Z,101217.64
2023-02-05T17:56:46.029Z,101217.27
2023-02-05T17:59:15.857Z,101211.11
2023-02-05T18:01:44.853Z,101222.85
2023-02-05T18:04:13.132Z,101225.26
2023-02-05T18:06:42.052Z,101226.68
2023-02-05T18:09:10.371Z,101224.45
2023-02-05T18:11:39.561Z,101227.80
2023-02-05T18:14:08.884Z,101232.83
2023-02-05T18:16:37.344Z,101232.12
2023-02-05T18:19:05.829Z,101239.71
2023-02-05T18:21:36.253Z,101245.82
2023-02-05T18:24:04.733Z,101245.42
2023-02-05T18:26:34.555Z,101248.20
2023-02-05T18:29:03.039Z,101250.71
2023-02-05T18:31:46.392Z,101257.72
2023-02-05T18:34:14.683Z,101259.94
2023-02-05T18:36:43.322Z,101262.55
2023-02-05T18:39:11.623Z,101265.02
2023-02-05T18:41:41.534Z,101271.85
2023-02-05T18:44:09.794Z,101271.00
2023-02-05T18:46:38.686Z,101273.51
2023-02-05T18:49:07.171Z,101271.71
2023-02-05T18:51:37.476Z,101268.89
2023-02-05T18:54:06.996Z,101267.17
2023-02-05T18:56:35.886Z,101266.27
2023-02-05T18:59:06.424Z,101267.00
2023-02-05T19:01:38.685Z,101267.52
2023-02-05T19:04:08.569Z,101267.06
2023-02-05T19:06:37.036Z,101271.34
2023-02-05T19:09:05.275Z,101275.31
2023-02-05T19:11:40.942Z,101273.87
2023-02-05T19:14:11.260Z,101272.54
2023-02-05T19:16:39.554Z,101280.63
2023-02-05T19:19:07.938Z,101282.20
2023-02-05T19:21:36.279Z,101286.08
2023-02-05T19:24:10.060Z,101289.68
2023-02-05T19:26:39.256Z,101296.63
2023-02-05T19:29:09.373Z,101301.27
2023-02-05T19:31:38.020Z,101303.77
2023-02-05T19:34:06.647Z,101306.91
2023-02-05T19:36:35.121Z,101306.29
2023-02-05T19:39:04.892Z,101308.80
2023-02-05T19:41:34.047Z,101312.55
2023-02-05T19:44:04.436Z,101314.78
2023-02-05T19:46:35.271Z,101316.23
2023-02-05T19:49:05.745Z,101316.30
2023-02-05T19:51:33.905Z,101320.20
2023-02-05T19:54:06.719Z,101327.55
2023-02-05T19:56:38.238Z,101331.30
2023-02-05T19:59:07.031Z,101333.41
2023-02-05T20:01:36.729Z,101335.85
2023-02-05T20:04:19.232Z,101337.83
2023-02-05T20:06:47.292Z,101338.77
2023-02-05T20:09:16.112Z,101341.48
2023-02-05T20:11:48.762Z,101343.45
2023-02-05T20:14:17.016Z,101346.83
2023-02-05T20:16:45.733Z,101350.23
2023-02-05T20:19:15.192Z,101349.31
2023-02-05T20:21:43.935Z,101353.04
2023-02-05T20:24:12.499Z,101355.31
2023-02-05T20:26:40.927Z,101352.14
2023-02-05T20:29:30.485Z,101355.67
2023-02-05T20:32:00.793Z,101356.39
2023-02-05T20:34:31.979Z,101360.52
2023-02-05T20:37:04.618Z,101362.88
2023-02-05T20:39:35.043Z,101365.90
2023-02-05T20:42:03.332Z,101362.87
2023-02-05T20:44:33.870Z,101362.68
2023-02-05T20:47:10.320Z,101371.16
2023-02-05T20:49:43.035Z,101369.91
2023-02-05T20:52:11.617Z,101375.13
2023-02-05T20:54:40.586Z,101373.29
2023-02-05T20:57:09.476Z,101378.52
2023-02-05T20:59:38.997Z,101384.48
2023-02-05T21:02:07.578Z,101387.86
2023-02-05T21:04:36.934Z,101390.19
2023-02-05T21:07:04.912Z,101393.25
2023-02-05T21:09:33.033Z,101402.01
2023-02-05T21:12:01.200Z,101403.52
2023-02-05T21:14:30.677Z,101405.39
2023-02-05T21:16:59.912Z,101407.75
2023-02-05T21:19:28.873Z,101419.43
2023-02-05T21:21:57.452Z,101417.42
2023-02-05T21:24:25.625Z,101417.90
2023-02-05T21:26:54.517Z,101419.80
2023-02-05T21:29:22.802Z,101423.45
2023-02-05T21:31:53.361Z,101424.77
2023-02-05T21:34:23.519Z,101421.79
2023-02-05T21:36:52.753Z,101420.89
2023-02-05T21:39:21.576Z,101420.94
2023-02-05T21:41:54.397Z,101421.58
2023-02-05T21:44:23.231Z,101421.47
2023-02-05T21:46:53.421Z,101428.70
2023-02-05T21:49:21.606Z,101431.73
2023-02-05T21:51:50.589Z,101432.55
2023-02-05T21:54:20.812Z,101434.50
2023-02-05T21:56:48.705Z,101436.95
2023-02-05T21:59:16.649Z,101439.23
2023-02-05T22:01:44.841Z,101442.38
2023-02-05T22:04:14.724Z,101449.15
2023-02-05T22:06:43.757Z,101446.13
2023-02-05T22:09:16.773Z,101447.78
2023-02-05T22:11:44.901Z,101447.71
2023-02-05T22:14:13.287Z,101448.27
2023-02-05T22:16:41.992Z,101450.80
2023-02-05T22:19:13.498Z,101450.33
2023-02-05T22:21:42.205Z,101444.77
2023-02-05T22:24:15.106Z,101449.78
2023-02-05T22:26:43.880Z,101451.34
2023-02-05T22:29:13.741Z,101451.08
2023-02-05T22:31:42.335Z,101451.01
2023-02-05T22:34:10.975Z,101452.16
2023-02-05T22:36:39.339Z,101457.55
2023-02-05T22:39:07.394Z,101459.45
2023-02-05T22:41:37.725Z,101462.45
2023-02-05T22:44:06.337Z,101460.98
2023-02-05T22:46:38.062Z,101462.30
2023-02-05T22:49:06.149Z,101466.98
2023-02-05T22:51:37.442Z,101466.02
2023-02-05T22:54:06.131Z,101470.63
2023-02-05T22:56:35.866Z,101464.90
2023-02-05T22:59:03.998Z,101469.64
2023-02-05T23:01:34.062Z,101470.77
2023-02-05T23:04:03.284Z,101471.29
2023-02-05T23:06:32.999Z,101470.45
2023-02-05T23:09:05.976Z,101473.53
2023-02-05T23:11:35.096Z,101473.74
2023-02-05T23:14:03.718Z,101477.88
2023-02-05T23:16:34.195Z,101484.18
2023-02-05T23:19:04.676Z,101486.09
2023-02-05T23:21:38.283Z,101489.86
2023-02-05T23:24:06.741Z,101491.14
2023-02-05T23:26:39.876Z,101489.11
2023-02-05T23:29:09.051Z,101491.31
2023-02-05T23:31:37.801Z,101493.32
2023-02-05T23:34:06.001Z,101498.89
2023-02-05T23:36:34.721Z,101501.20
2023-02-05T23:39:03.206Z,101502.16
2023-02-05T23:41:36.995Z,101505.68
2023-02-05T23:44:13.200Z,101501.92
2023-02-05T23:46:42.343Z,101503.47
2023-02-05T23:49:10.549Z,101505.32
2023-02-05T23:51:40.367Z,101508.52
2023-02-05T23:54:09.634Z,101513.42
2023-02-05T23:56:38.074Z,101518.47
2023-02-05T23:59:07.208Z,101516.95
